Latest Weather Observations for Fortescue Dave Forrest

IDW60801

Issued at 9:01 am WST Tuesday 3 May 2016 (issued every 30 minutes, with the page automatically refreshed every 10 minutes)

About weather observations | Map of weather stations | Latest weather observations for WA | Other Formats
Station Details ID: 505056 Name: FORTESCUE DAVE FORREST Lat: -22.29 Lon: 119.43 Height: 474.6 m
Data from the previous 72 hours. | See also: Recent months for locations in Western Australia
Date/Time
WST
Temp
°C
App
Temp
°C
Dew
Point
Rel
Hum
%
Delta-T
°C
Wind Press
QNH
hPa
Press
MSL
hPa
Rain
since 9 am
mm
Dir
 
Spd
km/h
Gust
km/h
Spd
kts
Gust
kts
03/09:00am 25.8 23.1 11.6 41 8.2 E 17 22 9 12 1018.0 1016.3 0.0
03/08:30am 24.2 22.4 12.2 47 7.0 ESE 13 20 7 11 1017.8 1016.2 0.0
03/08:00am 21.9 21.0 12.5 55 5.4 SE 9 15 5 8 1017.6 1016.0 0.0
03/07:30am 21.0 20.0 12.4 58 5.0 SE 9 15 5 8 1017.5 1015.9 0.0
03/07:00am 19.6 19.1 11.9 61 4.4 SSE 6 9 3 5 1017.4 1015.7 0.0
03/06:30am 18.5 17.8 11.3 63 4.0 SSE 6 7 3 4 1017.2 1015.5 0.0
03/06:00am 18.9 17.5 11.0 60 4.4 SSE 9 11 5 6 1016.8 1015.1 0.0
03/05:30am 19.8 18.0 10.8 56 5.0 S 11 15 6 8 1016.6 1014.9 0.0
03/05:00am 20.7 19.4 11.3 55 5.3 SE 9 13 5 7 1016.3 1014.6 0.0
03/04:30am 20.7 18.9 10.8 53 5.5 ESE 11 13 6 7 1016.0 1014.3 0.0
03/04:00am 21.0 19.9 10.5 51 5.8 SE 7 13 4 7 1016.0 1014.3 0.0
03/03:30am 21.4 18.4 9.3 46 6.6 ESE 15 19 8 10 1016.0 1014.3 0.0
03/03:00am 21.6 18.6 7.8 41 7.3 ESE 13 17 7 9 1016.2 1014.5 0.0
03/02:30am 21.9 19.3 7.7 40 7.6 SE 11 19 6 10 1016.4 1014.7 0.0
03/02:00am 22.0 19.2 7.0 38 7.9 SE 11 17 6 9 1016.4 1014.7 0.0
03/01:30am 22.2 19.6 6.0 35 8.4 SSE 9 15 5 8 1016.5 1014.8 0.0
03/01:00am 22.8 19.8 6.1 34 8.7 ESE 11 15 6 8 1016.2 1014.5 0.0
03/12:30am 23.2 20.6 6.1 33 8.9 E 9 13 5 7 1016.2 1014.5 0.0
03/12:00am 22.8 20.5 5.7 33 8.8 SE 7 11 4 6 1016.6 1014.9 0.0
 
Date/Time
WST
Temp
°C
App
Temp
°C
Dew
Point
Rel
Hum
%
Delta-T
°C
Wind Press
QNH
hPa
Press
MSL
hPa
Rain
since 9 am
mm
Dir
 
Spd
km/h
Gust
km/h
Spd
kts
Gust
kts
02/11:30pm 23.4 20.1 6.2 33 9.0 SSE 13 19 7 10 1016.6 1014.9 0.0
02/11:00pm 24.6 21.5 5.4 29 9.9 S 11 15 6 8 1016.6 1014.9 0.0
02/10:30pm 25.2 23.0 5.4 28 10.3 E 6 7 3 4 1016.3 1014.6 0.0
02/10:00pm 25.4 23.1 5.6 28 10.3 NE 7 9 4 5 1016.2 1014.5 0.0
02/09:30pm 25.9 23.3 6.0 28 10.5 ENE 9 13 5 7 1016.2 1014.5 0.0
02/09:00pm 26.5 23.9 6.0 27 10.9 NE 9 13 5 7 1016.2 1014.5 0.0
02/08:30pm 27.2 23.8 6.0 26 11.3 NE 13 22 7 12 1016.2 1014.5 0.0
02/08:00pm 27.5 24.2 6.3 26 11.4 NE 13 19 7 10 1016.0 1014.3 0.0
02/07:30pm 27.5 24.3 6.8 27 11.2 NE 13 17 7 9 1015.9 1014.2 0.0
02/07:00pm 27.9 25.7 7.7 28 11.1 NE 9 13 5 7 1015.5 1013.8 0.0
02/06:30pm 28.5 25.6 8.2 28 11.3 NNE 13 17 7 9 1015.4 1013.7 0.0
02/06:00pm 29.2 27.2 8.8 28 11.5 NE 9 13 5 7 1015.1 1013.4 0.0
02/05:30pm 30.1 27.7 8.5 26 12.2 NE 11 17 6 9 1014.8 1013.1 0.0
02/05:00pm 30.9 28.5 8.6 25 12.6 NNE 11 19 6 10 1014.5 1012.8 0.0
02/04:30pm 31.0 27.6 9.3 26 12.4 NE 17 20 9 11 1014.4 1012.7 0.0
02/04:00pm 31.3 28.2 8.9 25 12.8 NNE 15 22 8 12 1014.4 1012.7 0.0
02/03:30pm 31.6 28.4 8.6 24 13.1 ENE 15 26 8 14 1014.3 1012.6 0.0
02/03:00pm 32.5 30.3 9.3 24 13.4 N 11 19 6 10 1014.4 1012.7 0.0
02/02:30pm 31.3 29.1 9.5 26 12.6 ENE 11 19 6 10 1014.4 1012.7 0.0
02/02:00pm 30.5 27.3 9.9 28 11.9 NE 17 22 9 12 1014.6 1012.9 0.0
02/01:30pm 31.2 29.0 9.4 26 12.5 NE 11 20 6 11 1014.9 1013.2 0.0
02/01:00pm 30.5 27.5 9.4 27 12.1 E 15 22 8 12 1015.4 1013.7 0.0
02/12:30pm 29.9 26.4 8.9 27 11.9 ENE 17 24 9 13 1015.9 1014.2 0.0
02/12:00pm 29.6 26.1 8.6 27 11.8 E 17 26 9 14 1016.4 1014.7 0.0
02/11:30am 30.0 25.7 7.8 25 12.4 E 20 32 11 17 1016.7 1015.0 0.0
02/11:00am 29.0 24.8 8.1 27 11.6 E 20 30 11 16 1017.3 1015.6 0.0
02/10:30am 28.9 24.8 8.0 27 11.6 E 19 30 10 16 1017.6 1016.0 0.0
02/10:00am 27.7 23.7 8.1 29 10.8 E 19 26 10 14 1017.8 1016.2 0.0
02/09:30am 27.1 24.3 8.5 31 10.3 ESE 13 19 7 10 1017.8 1016.2 0.0
02/09:00am 25.7 22.8 8.2 33 9.6 SE 13 19 7 10 1017.7 1016.1 0.0
02/08:30am 25.2 22.3 8.2 34 9.3 SE 13 19 7 10 1017.6 1016.0 0.0
02/08:00am 24.3 21.9 8.7 37 8.6 SE 11 15 6 8 1017.2 1015.5 0.0
02/07:30am 23.5 21.4 8.4 38 8.2 SE 9 15 5 8 1016.9 1015.2 0.0
02/07:00am 23.3 20.6 9.0 40 7.8 SE 13 19 7 10 1016.4 1014.7 0.0
02/06:30am 23.3 21.3 10.0 43 7.4 SSE 11 17 6 9 1016.1 1014.4 0.0
02/06:00am 23.6 22.5 13.2 52 6.1 S 11 17 6 9 1015.9 1014.2 0.0
02/05:30am 23.5 23.2 14.5 57 5.4 SSE 9 17 5 9 1015.4 1013.7 0.0
02/05:00am 24.0 24.5 15.5 59 5.2 S 7 17 4 9 1015.2 1013.5 0.0
02/04:30am 25.0 25.6 16.7 60 5.2 W 9 15 5 8 1014.8 1013.1 0.0
02/04:00am 25.2 25.3 16.6 59 5.4 W 11 15 6 8 1014.6 1012.9 0.0
02/03:30am 25.2 25.3 16.6 59 5.4 W 11 13 6 7 1014.3 1012.6 0.0
02/03:00am 25.3 25.4 16.4 57 5.6 WNW 11 15 6 8 1014.1 1012.4 0.0
02/02:30am 25.6 25.6 16.2 56 5.9 W 11 15 6 8 1014.3 1012.6 0.0
02/02:00am 25.6 26.2 15.9 55 6.0 W 7 11 4 6 1014.5 1012.8 0.0
02/01:30am 25.7 25.8 15.4 53 6.4 WNW 9 11 5 6 1014.8 1013.1 0.0
02/01:00am 25.8 25.3 14.9 51 6.7 WNW 11 15 6 8 1015.1 1013.4 0.0
02/12:30am 25.9 26.1 14.7 50 6.8 NW 7 9 4 5 1015.1 1013.4 0.0
02/12:00am 26.4 26.1 14.5 48 7.3 NW 9 13 5 7 1015.2 1013.5 0.0
 
Date/Time
WST
Temp
°C
App
Temp
°C
Dew
Point
Rel
Hum
%
Delta-T
°C
Wind Press
QNH
hPa
Press
MSL
hPa
Rain
since 9 am
mm
Dir
 
Spd
km/h
Gust
km/h
Spd
kts
Gust
kts
01/11:30pm 26.9 25.9 14.6 46 7.5 NW 13 19 7 10 1015.1 1013.4 0.0
01/11:00pm 26.9 26.4 15.0 48 7.3 NW 11 17 6 9 1015.0 1013.3 0.0
01/10:30pm 27.0 26.0 14.7 47 7.5 NW 13 17 7 9 1015.1 1013.4 0.0
01/10:00pm 26.2 25.9 14.3 48 7.2 NNW 9 19 5 10 1015.3 1013.6 0.0
01/09:30pm 26.3 26.4 14.4 48 7.3 NNW 7 9 4 5 1015.3 1013.6 0.0
01/09:00pm 27.0 26.3 14.4 46 7.7 NNW 11 11 6 6 1015.3 1013.6 0.0
01/08:30pm 27.1 27.4 14.5 46 7.7 NNW 6 7 3 4 1015.5 1013.8 0.0
01/08:00pm 28.1 27.8 14.3 42 8.4 NNW 9 11 5 6 1015.4 1013.7 0.0
01/07:30pm 28.4 28.7 14.6 43 8.5 NNW 6 9 3 5 1015.3 1013.6 0.0
01/07:00pm 29.2 29.0 14.6 41 9.0 N 9 15 5 8 1015.0 1013.3 0.0
01/06:30pm 29.5 28.9 14.5 40 9.3 N 11 17 6 9 1014.8 1013.1 0.0
01/06:00pm 29.8 28.7 14.4 39 9.5 N 13 19 7 10 1014.5 1012.8 0.0
01/05:30pm 30.1 28.2 14.2 38 9.8 N 17 24 9 13 1014.2 1012.5 0.0
01/05:00pm 30.6 28.2 14.3 37 10.1 N 20 24 11 13 1014.0 1012.3 0.0
01/04:30pm 30.7 28.3 13.9 36 10.3 N 19 24 10 13 1013.8 1012.1 0.0
01/04:00pm 31.4 28.6 13.2 33 11.1 N 20 30 11 16 1013.6 1011.8 0.0
01/03:30pm 31.5 29.4 13.7 33 10.9 NNW 17 26 9 14 1013.8 1012.1 0.0
01/03:00pm 32.0 29.8 13.2 31 11.5 N 17 30 9 16 1013.8 1012.1 0.0
01/02:30pm 30.9 28.5 12.8 33 11.0 NW 17 30 9 16 1013.8 1012.1 0.0
01/02:00pm 32.2 28.9 12.9 31 11.8 NNW 22 33 12 18 1014.0 1012.3 0.0
01/01:30pm 31.5 28.5 11.8 30 11.8 N 19 41 10 22 1014.2 1012.5 0.0
01/01:00pm 32.0 28.7 11.7 28 12.1 NNW 20 35 11 19 1014.5 1012.8 0.0
01/12:30pm 30.9 27.9 10.8 29 11.8 N 17 28 9 15 1015.3 1013.6 0.0
01/12:00pm 30.6 27.5 8.9 26 12.3 NNE 15 26 8 14 1015.9 1014.2 0.0
01/11:30am 30.4 27.3 8.7 26 12.3 NE 15 24 8 13 1016.3 1014.6 0.0
01/11:00am 29.9 26.3 8.3 26 12.1 NE 17 28 9 15 1016.7 1015.0 0.0
01/10:30am 28.7 24.8 7.3 26 11.7 ENE 17 24 9 13 1017.0 1015.3 0.0
01/10:00am 27.7 23.7 6.5 26 11.4 ENE 17 30 9 16 1017.4 1015.7 0.0
01/09:30am 27.0 22.6 6.4 27 11.0 E 19 24 10 13 1017.6 1016.0 0.0
01/09:00am 26.4 22.1 6.9 29 10.5 E 19 22 10 12 1017.6 1016.0 0.0
01/08:30am 25.4 22.4 6.1 29 10.2 E 11 17 6 9 1017.5 1015.9 0.0
01/08:00am 22.8 20.2 6.1 34 8.7 ESE 9 13 5 7 1017.5 1015.9 0.0
01/07:30am 21.3 18.7 6.0 37 7.9 SE 9 15 5 8 1017.3 1014.6 0.0
01/07:00am 19.2 17.0 6.3 43 6.6 ESE 7 11 4 6 1017.1 1014.4 0.0
01/06:30am 18.4 16.5 6.6 46 6.0 ESE 6 7 3 4 1016.8 1014.1 0.0
01/06:00am 19.3 17.3 6.4 43 6.6 ESE 6 6 3 3 1016.5 1013.8 0.0
01/05:30am 19.7 18.5 6.4 42 6.8 NE 2 6 1 3 1016.4 1013.7 0.0
01/05:00am 20.0 17.9 6.0 40 7.1 ESE 6 7 3 4 1015.9 1013.2 0.0
01/04:30am 20.3 18.7 6.3 40 7.2 SE 4 7 2 4 1015.8 1013.0 0.0
01/04:00am 20.5 18.4 6.5 40 7.2 SE 7 11 4 6 1015.4 1012.7 0.0
01/03:30am 21.1 18.6 6.6 39 7.5 SE 9 15 5 8 1015.3 1012.6 0.0
01/03:00am 21.2 18.6 6.3 38 7.7 SSE 9 13 5 7 1015.2 1012.5 0.0
01/02:30am 21.5 19.7 7.0 39 7.6 SSE 6 9 3 5 1015.2 1012.5 0.0
01/02:00am 22.2 20.3 7.6 39 7.8 SSE 7 9 4 5 1014.9 1012.2 0.0
01/01:30am 22.6 21.0 8.0 39 7.8 SSE 6 9 3 5 1015.2 1012.5 0.0
01/01:00am 23.6 22.0 8.1 37 8.4 SSE 6 11 3 6 1015.1 1012.4 0.0
01/12:30am 24.4 22.3 8.4 36 8.7 SSE 9 13 5 7 1015.2 1012.5 0.0
01/12:00am 25.7 23.7 8.7 34 9.4 SSE 9 13 5 7 1015.3 1012.6 0.0
 
Date/Time
WST
Temp
°C
App
Temp
°C
Dew
Point
Rel
Hum
%
Delta-T
°C
Wind Press
QNH
hPa
Press
MSL
hPa
Rain
since 9 am
mm
Dir
 
Spd
km/h
Gust
km/h
Spd
kts
Gust
kts
30/11:30pm 26.5 25.1 8.9 33 9.8 SSW 6 7 3 4 1015.4 1012.7 0.0
30/11:00pm 26.9 25.1 9.3 33 9.9 SW 9 11 5 6 1015.5 1012.8 0.0
30/10:30pm 26.7 25.6 10.0 35 9.5 W 6 9 3 5 1015.3 1012.6 0.0
30/10:00pm 26.3 25.0 10.0 36 9.2 WNW 7 13 4 7 1015.4 1012.7 0.0
30/09:30pm 26.3 24.9 9.6 35 9.4 N 7 15 4 8 1015.3 1012.6 0.0
30/09:00pm 26.6 25.8 9.5 34 9.6 NNE 4 6 2 3 1015.4 1012.7 0.0
30/08:30pm 26.9 25.6 9.3 33 9.9 N 6 6 3 3 1015.2 1012.5 0.0
30/08:00pm 26.6 25.5 8.6 32 10.0 NNW 4 6 2 3 1015.0 1012.3 0.0
30/07:30pm 27.1 25.6 8.5 31 10.3 N 6 6 3 3 1014.5 1011.8 0.0
30/07:00pm 27.6 26.5 8.5 30 10.6 NNW 4 4 2 2 1014.4 1011.7 0.0
30/06:30pm 28.1 26.6 8.4 29 11.0 NNW 6 6 3 3 1014.2 1011.5 0.0
30/06:00pm 29.1 27.0 8.2 27 11.7 N 9 13 5 7 1013.9 1011.1 0.0
30/05:30pm 30.5 28.3 7.7 24 12.7 N 9 13 5 7 1013.7 1010.9 0.0
30/05:00pm 31.0 28.0 7.5 23 13.1 NNW 13 17 7 9 1013.2 1010.5 0.0
30/04:30pm 31.3 28.2 7.1 22 13.4 N 13 19 7 10 1013.1 1010.4 0.0
30/04:00pm 31.2 27.8 7.6 23 13.2 NNW 15 24 8 13 1013.0 1010.3 0.0
30/03:30pm 31.2 28.8 7.0 22 13.4 NNW 9 15 5 8 1013.1 1010.4 0.0
30/03:00pm 30.8 28.5 7.3 23 13.0 NNW 9 20 5 11 1012.9 1010.2 0.0
30/02:30pm 31.5 28.0 7.2 22 13.5 N 15 30 8 16 1013.2 1010.5 0.0
30/02:00pm 31.6 28.3 6.6 21 13.8 NNE 13 22 7 12 1013.3 1010.6 0.0
30/01:30pm 31.6 30.0 8.6 24 13.1 N 7 17 4 9 1013.8 1011.0 0.0
30/01:00pm 30.8 29.3 9.1 26 12.4 WNW 7 19 4 10 1014.1 1011.4 0.0
30/12:30pm 30.7 29.2 9.0 26 12.4 ENE 7 22 4 12 1014.7 1012.0 0.0
30/12:00pm 29.9 27.2 8.9 27 11.9 NE 13 24 7 13 1015.3 1012.6 0.0
30/11:30am 29.0 27.1 10.6 32 10.7 NE 11 19 6 10 1015.7 1012.9 0.0
30/11:00am 28.4 25.8 10.6 33 10.3 E 15 24 8 13 1016.1 1013.4 0.0
30/10:30am 27.2 24.5 10.4 35 9.6 E 15 22 8 12 1016.6 1013.9 0.0
30/10:00am 25.9 22.5 9.3 35 9.3 ESE 17 24 9 13 1016.8 1014.1 0.0
30/09:30am 25.0 21.0 8.9 36 8.9 ESE 20 28 11 15 1016.8 1014.1 0.0

Other Formats:

Comma delimited format used in spreadsheet applications
http://www.bom.gov.au/fwo/IDW60801/IDW60801.99736.axf

JavaScript Object Notation format (JSON) in row-major order
http://www.bom.gov.au/fwo/IDW60801/IDW60801.99736.json